sensor_id;sensor_type;location;lat;lon;timestamp;P1;durP1;ratioP1;P2;durP2;ratioP2
16416;SDS011;8317;52.186;5.688;2023-06-22T00:00:47;2.55;;;2.10;;
16416;SDS011;8317;52.186;5.688;2023-06-22T00:03:15;3.70;;;1.83;;
16416;SDS011;8317;52.186;5.688;2023-06-22T00:05:42;2.60;;;2.35;;
16416;SDS011;8317;52.186;5.688;2023-06-22T00:08:08;2.17;;;1.95;;
16416;SDS011;8317;52.186;5.688;2023-06-22T00:10:35;2.35;;;2.00;;
16416;SDS011;8317;52.186;5.688;2023-06-22T00:13:04;2.75;;;2.40;;
16416;SDS011;8317;52.186;5.688;2023-06-22T00:15:31;3.30;;;2.45;;
16416;SDS011;8317;52.186;5.688;2023-06-22T00:17:58;3.60;;;2.22;;
16416;SDS011;8317;52.186;5.688;2023-06-22T00:20:25;3.92;;;2.20;;
16416;SDS011;8317;52.186;5.688;2023-06-22T00:22:54;4.68;;;3.10;;
16416;SDS011;8317;52.186;5.688;2023-06-22T00:25:22;2.33;;;2.05;;
16416;SDS011;8317;52.186;5.688;2023-06-22T00:27:49;2.50;;;2.05;;
16416;SDS011;8317;52.186;5.688;2023-06-22T00:30:18;4.00;;;1.95;;
16416;SDS011;8317;52.186;5.688;2023-06-22T00:32:45;2.42;;;2.00;;
16416;SDS011;8317;52.186;5.688;2023-06-22T00:35:12;3.25;;;2.63;;
16416;SDS011;8317;52.186;5.688;2023-06-22T00:37:40;4.38;;;2.63;;
16416;SDS011;8317;52.186;5.688;2023-06-22T00:40:07;3.00;;;2.47;;
16416;SDS011;8317;52.186;5.688;2023-06-22T00:42:36;2.58;;;2.00;;
16416;SDS011;8317;52.186;5.688;2023-06-22T00:45:04;3.63;;;2.13;;
16416;SDS011;8317;52.186;5.688;2023-06-22T00:47:33;2.30;;;2.05;;
16416;SDS011;8317;52.186;5.688;2023-06-22T00:50:02;3.45;;;2.20;;
16416;SDS011;8317;52.186;5.688;2023-06-22T00:52:29;2.72;;;2.17;;
16416;SDS011;8317;52.186;5.688;2023-06-22T00:54:58;2.42;;;2.17;;
16416;SDS011;8317;52.186;5.688;2023-06-22T00:57:27;5.90;;;2.30;;
16416;SDS011;8317;52.186;5.688;2023-06-22T00:59:54;2.92;;;2.10;;
16416;SDS011;8317;52.186;5.688;2023-06-22T01:02:21;2.22;;;2.03;;
16416;SDS011;8317;52.186;5.688;2023-06-22T01:04:49;2.70;;;2.42;;
16416;SDS011;8317;52.186;5.688;2023-06-22T01:07:19;3.50;;;2.60;;
16416;SDS011;8317;52.186;5.688;2023-06-22T01:09:55;7.15;;;2.72;;
16416;SDS011;8317;52.186;5.688;2023-06-22T01:12:29;3.63;;;2.28;;
16416;SDS011;8317;52.186;5.688;2023-06-22T01:15:02;3.60;;;2.63;;
16416;SDS011;8317;52.186;5.688;2023-06-22T01:17:35;2.88;;;2.58;;
16416;SDS011;8317;52.186;5.688;2023-06-22T01:20:07;2.67;;;2.28;;
16416;SDS011;8317;52.186;5.688;2023-06-22T01:22:39;2.38;;;2.17;;
16416;SDS011;8317;52.186;5.688;2023-06-22T01:28:47;3.33;;;2.67;;
16416;SDS011;8317;52.186;5.688;2023-06-22T01:31:18;3.38;;;2.85;;
16416;SDS011;8317;52.186;5.688;2023-06-22T01:33:47;3.22;;;2.85;;
16416;SDS011;8317;52.186;5.688;2023-06-22T01:36:17;5.28;;;2.58;;
16416;SDS011;8317;52.186;5.688;2023-06-22T01:38:45;4.90;;;2.67;;
16416;SDS011;8317;52.186;5.688;2023-06-22T01:41:13;4.38;;;3.03;;
16416;SDS011;8317;52.186;5.688;2023-06-22T01:43:41;6.65;;;2.38;;
16416;SDS011;8317;52.186;5.688;2023-06-22T01:46:10;3.70;;;2.70;;
16416;SDS011;8317;52.186;5.688;2023-06-22T01:48:37;4.63;;;2.78;;
16416;SDS011;8317;52.186;5.688;2023-06-22T01:51:05;3.20;;;2.60;;
16416;SDS011;8317;52.186;5.688;2023-06-22T01:53:32;4.35;;;2.85;;
16416;SDS011;8317;52.186;5.688;2023-06-22T01:55:59;4.18;;;3.20;;
16416;SDS011;8317;52.186;5.688;2023-06-22T01:58:26;4.10;;;2.67;;
16416;SDS011;8317;52.186;5.688;2023-06-22T02:00:55;3.75;;;3.03;;
16416;SDS011;8317;52.186;5.688;2023-06-22T02:03:28;3.72;;;3.38;;
16416;SDS011;8317;52.186;5.688;2023-06-22T02:06:04;4.00;;;2.85;;
16416;SDS011;8317;52.186;5.688;2023-06-22T02:08:35;4.18;;;3.00;;
16416;SDS011;8317;52.186;5.688;2023-06-22T02:11:06;3.20;;;2.90;;
16416;SDS011;8317;52.186;5.688;2023-06-22T02:13:35;4.25;;;2.45;;
16416;SDS011;8317;52.186;5.688;2023-06-22T02:16:03;3.53;;;2.90;;
16416;SDS011;8317;52.186;5.688;2023-06-22T02:18:31;3.35;;;2.30;;
16416;SDS011;8317;52.186;5.688;2023-06-22T02:21:00;3.58;;;2.85;;
16416;SDS011;8317;52.186;5.688;2023-06-22T02:23:27;10.23;;;3.85;;
16416;SDS011;8317;52.186;5.688;2023-06-22T02:25:54;4.13;;;2.78;;
16416;SDS011;8317;52.186;5.688;2023-06-22T02:28:21;4.53;;;3.00;;
16416;SDS011;8317;52.186;5.688;2023-06-22T02:30:48;4.32;;;2.88;;
16416;SDS011;8317;52.186;5.688;2023-06-22T02:33:15;4.40;;;2.70;;
16416;SDS011;8317;52.186;5.688;2023-06-22T02:35:43;5.20;;;3.40;;
16416;SDS011;8317;52.186;5.688;2023-06-22T02:38:14;4.40;;;2.80;;
16416;SDS011;8317;52.186;5.688;2023-06-22T02:40:42;4.05;;;3.08;;
16416;SDS011;8317;52.186;5.688;2023-06-22T02:43:09;3.90;;;2.92;;
16416;SDS011;8317;52.186;5.688;2023-06-22T02:45:36;3.60;;;2.80;;
16416;SDS011;8317;52.186;5.688;2023-06-22T02:48:03;8.50;;;3.30;;
16416;SDS011;8317;52.186;5.688;2023-06-22T02:50:31;6.60;;;3.50;;
16416;SDS011;8317;52.186;5.688;2023-06-22T02:52:59;4.50;;;2.53;;
16416;SDS011;8317;52.186;5.688;2023-06-22T02:55:26;5.78;;;3.47;;
16416;SDS011;8317;52.186;5.688;2023-06-22T02:57:52;5.70;;;3.33;;
16416;SDS011;8317;52.186;5.688;2023-06-22T03:00:19;4.57;;;3.53;;
16416;SDS011;8317;52.186;5.688;2023-06-22T03:02:47;5.07;;;3.33;;
16416;SDS011;8317;52.186;5.688;2023-06-22T03:05:15;5.13;;;3.08;;
16416;SDS011;8317;52.186;5.688;2023-06-22T03:07:43;4.53;;;3.45;;
16416;SDS011;8317;52.186;5.688;2023-06-22T03:10:11;6.50;;;3.55;;
16416;SDS011;8317;52.186;5.688;2023-06-22T03:12:40;5.53;;;3.80;;
16416;SDS011;8317;52.186;5.688;2023-06-22T03:15:08;4.50;;;2.97;;
16416;SDS011;8317;52.186;5.688;2023-06-22T03:17:36;5.30;;;3.80;;
16416;SDS011;8317;52.186;5.688;2023-06-22T03:20:05;6.07;;;3.88;;
16416;SDS011;8317;52.186;5.688;2023-06-22T03:22:34;5.32;;;3.90;;
16416;SDS011;8317;52.186;5.688;2023-06-22T03:25:01;5.65;;;3.53;;
16416;SDS011;8317;52.186;5.688;2023-06-22T03:27:29;9.40;;;4.50;;
16416;SDS011;8317;52.186;5.688;2023-06-22T03:29:56;5.28;;;3.65;;
16416;SDS011;8317;52.186;5.688;2023-06-22T03:32:23;6.32;;;4.25;;
16416;SDS011;8317;52.186;5.688;2023-06-22T03:34:53;6.25;;;3.67;;
16416;SDS011;8317;52.186;5.688;2023-06-22T03:37:23;5.47;;;4.45;;
16416;SDS011;8317;52.186;5.688;2023-06-22T03:39:50;6.22;;;3.80;;
16416;SDS011;8317;52.186;5.688;2023-06-22T03:42:17;8.10;;;3.88;;
16416;SDS011;8317;52.186;5.688;2023-06-22T03:44:45;6.38;;;4.18;;
16416;SDS011;8317;52.186;5.688;2023-06-22T03:47:13;6.82;;;5.00;;
16416;SDS011;8317;52.186;5.688;2023-06-22T03:49:40;6.95;;;4.70;;
16416;SDS011;8317;52.186;5.688;2023-06-22T03:52:07;9.95;;;4.78;;
16416;SDS011;8317;52.186;5.688;2023-06-22T03:54:34;10.75;;;5.60;;
16416;SDS011;8317;52.186;5.688;2023-06-22T03:57:01;7.10;;;4.80;;
16416;SDS011;8317;52.186;5.688;2023-06-22T03:59:28;10.02;;;5.40;;
16416;SDS011;8317;52.186;5.688;2023-06-22T04:01:56;8.65;;;6.13;;
16416;SDS011;8317;52.186;5.688;2023-06-22T04:04:23;9.05;;;6.35;;
16416;SDS011;8317;52.186;5.688;2023-06-22T04:06:50;12.55;;;7.32;;
16416;SDS011;8317;52.186;5.688;2023-06-22T04:09:16;13.02;;;7.82;;
16416;SDS011;8317;52.186;5.688;2023-06-22T04:11:43;13.05;;;7.85;;
16416;SDS011;8317;52.186;5.688;2023-06-22T04:14:10;14.48;;;8.40;;
16416;SDS011;8317;52.186;5.688;2023-06-22T04:16:37;17.17;;;10.18;;
16416;SDS011;8317;52.186;5.688;2023-06-22T04:19:05;14.75;;;10.05;;
16416;SDS011;8317;52.186;5.688;2023-06-22T04:21:32;18.58;;;10.63;;
16416;SDS011;8317;52.186;5.688;2023-06-22T04:23:59;17.95;;;11.52;;
16416;SDS011;8317;52.186;5.688;2023-06-22T04:26:26;17.42;;;10.70;;
16416;SDS011;8317;52.186;5.688;2023-06-22T04:28:53;18.60;;;10.15;;
16416;SDS011;8317;52.186;5.688;2023-06-22T04:31:20;18.15;;;10.18;;
16416;SDS011;8317;52.186;5.688;2023-06-22T04:33:57;17.15;;;10.18;;
16416;SDS011;8317;52.186;5.688;2023-06-22T04:36:31;18.48;;;10.55;;
16416;SDS011;8317;52.186;5.688;2023-06-22T04:39:02;23.42;;;12.40;;
16416;SDS011;8317;52.186;5.688;2023-06-22T04:41:34;24.20;;;13.00;;
16416;SDS011;8317;52.186;5.688;2023-06-22T04:44:07;23.00;;;12.98;;
16416;SDS011;8317;52.186;5.688;2023-06-22T04:46:35;27.55;;;13.43;;
16416;SDS011;8317;52.186;5.688;2023-06-22T04:49:03;23.65;;;13.35;;
16416;SDS011;8317;52.186;5.688;2023-06-22T04:51:38;26.50;;;14.02;;
16416;SDS011;8317;52.186;5.688;2023-06-22T04:54:06;28.08;;;15.50;;
16416;SDS011;8317;52.186;5.688;2023-06-22T04:56:33;26.00;;;14.90;;
16416;SDS011;8317;52.186;5.688;2023-06-22T04:59:01;24.38;;;14.43;;
16416;SDS011;8317;52.186;5.688;2023-06-22T05:01:28;26.17;;;15.57;;
16416;SDS011;8317;52.186;5.688;2023-06-22T05:03:56;27.55;;;16.25;;
16416;SDS011;8317;52.186;5.688;2023-06-22T05:06:26;26.80;;;15.05;;
16416;SDS011;8317;52.186;5.688;2023-06-22T05:08:55;26.08;;;15.65;;
16416;SDS011;8317;52.186;5.688;2023-06-22T05:11:23;29.20;;;17.77;;
16416;SDS011;8317;52.186;5.688;2023-06-22T05:13:51;31.95;;;17.05;;
16416;SDS011;8317;52.186;5.688;2023-06-22T05:16:18;30.38;;;17.23;;
16416;SDS011;8317;52.186;5.688;2023-06-22T05:18:49;31.48;;;17.75;;
16416;SDS011;8317;52.186;5.688;2023-06-22T05:21:16;30.90;;;18.38;;
16416;SDS011;8317;52.186;5.688;2023-06-22T05:23:44;34.22;;;17.77;;
16416;SDS011;8317;52.186;5.688;2023-06-22T05:26:12;34.28;;;17.35;;
16416;SDS011;8317;52.186;5.688;2023-06-22T05:28:39;29.50;;;16.73;;
16416;SDS011;8317;52.186;5.688;2023-06-22T05:31:06;32.03;;;18.63;;
16416;SDS011;8317;52.186;5.688;2023-06-22T05:33:32;27.38;;;16.05;;
16416;SDS011;8317;52.186;5.688;2023-06-22T05:35:59;27.52;;;16.00;;
16416;SDS011;8317;52.186;5.688;2023-06-22T05:38:26;34.47;;;18.10;;
16416;SDS011;8317;52.186;5.688;2023-06-22T05:40:53;28.60;;;17.38;;
16416;SDS011;8317;52.186;5.688;2023-06-22T05:43:22;28.05;;;16.27;;
16416;SDS011;8317;52.186;5.688;2023-06-22T05:45:48;27.60;;;17.25;;
16416;SDS011;8317;52.186;5.688;2023-06-22T05:48:15;30.40;;;17.15;;
16416;SDS011;8317;52.186;5.688;2023-06-22T05:50:42;27.90;;;17.52;;
16416;SDS011;8317;52.186;5.688;2023-06-22T05:53:09;29.23;;;17.00;;
16416;SDS011;8317;52.186;5.688;2023-06-22T05:55:36;27.25;;;15.65;;
16416;SDS011;8317;52.186;5.688;2023-06-22T05:58:03;22.45;;;13.35;;
16416;SDS011;8317;52.186;5.688;2023-06-22T06:00:31;25.95;;;14.73;;
16416;SDS011;8317;52.186;5.688;2023-06-22T06:02:58;26.30;;;15.50;;
16416;SDS011;8317;52.186;5.688;2023-06-22T06:05:28;21.17;;;14.18;;
16416;SDS011;8317;52.186;5.688;2023-06-22T06:07:55;24.80;;;14.52;;
16416;SDS011;8317;52.186;5.688;2023-06-22T06:10:22;20.90;;;12.48;;
16416;SDS011;8317;52.186;5.688;2023-06-22T06:12:50;23.80;;;15.35;;
16416;SDS011;8317;52.186;5.688;2023-06-22T06:15:17;21.42;;;12.38;;
16416;SDS011;8317;52.186;5.688;2023-06-22T06:17:48;20.00;;;12.20;;
16416;SDS011;8317;52.186;5.688;2023-06-22T06:20:15;20.38;;;13.40;;
16416;SDS011;8317;52.186;5.688;2023-06-22T06:22:44;20.60;;;12.98;;
16416;SDS011;8317;52.186;5.688;2023-06-22T06:25:11;20.25;;;12.00;;
16416;SDS011;8317;52.186;5.688;2023-06-22T06:27:41;21.63;;;12.45;;
16416;SDS011;8317;52.186;5.688;2023-06-22T06:30:09;18.58;;;11.38;;
16416;SDS011;8317;52.186;5.688;2023-06-22T06:32:37;20.02;;;12.48;;
16416;SDS011;8317;52.186;5.688;2023-06-22T06:35:06;14.95;;;9.80;;
16416;SDS011;8317;52.186;5.688;2023-06-22T06:37:35;18.05;;;12.05;;
16416;SDS011;8317;52.186;5.688;2023-06-22T06:40:03;15.85;;;10.40;;
16416;SDS011;8317;52.186;5.688;2023-06-22T06:42:33;13.50;;;9.35;;
16416;SDS011;8317;52.186;5.688;2023-06-22T06:45:00;16.77;;;9.75;;
16416;SDS011;8317;52.186;5.688;2023-06-22T06:47:26;16.02;;;10.43;;
16416;SDS011;8317;52.186;5.688;2023-06-22T06:49:53;14.70;;;10.50;;
16416;SDS011;8317;52.186;5.688;2023-06-22T06:52:22;12.43;;;8.18;;
16416;SDS011;8317;52.186;5.688;2023-06-22T06:54:49;13.40;;;8.65;;
16416;SDS011;8317;52.186;5.688;2023-06-22T06:57:17;13.25;;;8.02;;
16416;SDS011;8317;52.186;5.688;2023-06-22T06:59:45;11.07;;;6.28;;
16416;SDS011;8317;52.186;5.688;2023-06-22T07:02:12;10.40;;;6.82;;
16416;SDS011;8317;52.186;5.688;2023-06-22T07:04:39;12.27;;;8.00;;
16416;SDS011;8317;52.186;5.688;2023-06-22T07:07:06;13.73;;;7.45;;
16416;SDS011;8317;52.186;5.688;2023-06-22T07:09:35;12.35;;;7.10;;
16416;SDS011;8317;52.186;5.688;2023-06-22T07:12:02;11.38;;;7.32;;
16416;SDS011;8317;52.186;5.688;2023-06-22T07:14:29;8.77;;;6.18;;
16416;SDS011;8317;52.186;5.688;2023-06-22T07:16:56;10.40;;;7.20;;
16416;SDS011;8317;52.186;5.688;2023-06-22T07:19:26;11.20;;;7.65;;
16416;SDS011;8317;52.186;5.688;2023-06-22T07:21:54;8.07;;;6.25;;
16416;SDS011;8317;52.186;5.688;2023-06-22T07:24:21;11.50;;;5.68;;
16416;SDS011;8317;52.186;5.688;2023-06-22T07:26:49;11.07;;;7.60;;
16416;SDS011;8317;52.186;5.688;2023-06-22T07:29:17;11.02;;;6.88;;
16416;SDS011;8317;52.186;5.688;2023-06-22T07:31:45;9.63;;;7.60;;
16416;SDS011;8317;52.186;5.688;2023-06-22T07:34:12;11.68;;;7.72;;
16416;SDS011;8317;52.186;5.688;2023-06-22T07:36:39;11.85;;;7.20;;
16416;SDS011;8317;52.186;5.688;2023-06-22T07:39:06;9.07;;;7.38;;
16416;SDS011;8317;52.186;5.688;2023-06-22T07:41:33;11.13;;;7.65;;
16416;SDS011;8317;52.186;5.688;2023-06-22T07:44:01;15.13;;;7.60;;
16416;SDS011;8317;52.186;5.688;2023-06-22T07:46:28;11.80;;;6.63;;
16416;SDS011;8317;52.186;5.688;2023-06-22T07:48:56;10.15;;;6.53;;
16416;SDS011;8317;52.186;5.688;2023-06-22T07:51:23;10.88;;;7.38;;
16416;SDS011;8317;52.186;5.688;2023-06-22T07:53:50;9.63;;;6.18;;
16416;SDS011;8317;52.186;5.688;2023-06-22T07:56:17;10.30;;;6.80;;
16416;SDS011;8317;52.186;5.688;2023-06-22T07:58:45;14.82;;;6.78;;
16416;SDS011;8317;52.186;5.688;2023-06-22T08:01:13;11.55;;;5.53;;
16416;SDS011;8317;52.186;5.688;2023-06-22T08:03:41;9.65;;;6.00;;
16416;SDS011;8317;52.186;5.688;2023-06-22T08:06:08;8.40;;;6.28;;
16416;SDS011;8317;52.186;5.688;2023-06-22T08:08:35;8.60;;;6.05;;
16416;SDS011;8317;52.186;5.688;2023-06-22T08:11:02;7.80;;;6.10;;
16416;SDS011;8317;52.186;5.688;2023-06-22T08:13:30;9.85;;;5.40;;
16416;SDS011;8317;52.186;5.688;2023-06-22T08:15:56;8.60;;;4.82;;
16416;SDS011;8317;52.186;5.688;2023-06-22T08:18:25;8.27;;;5.78;;
16416;SDS011;8317;52.186;5.688;2023-06-22T08:20:52;6.55;;;4.97;;
16416;SDS011;8317;52.186;5.688;2023-06-22T08:23:18;9.32;;;5.85;;
16416;SDS011;8317;52.186;5.688;2023-06-22T08:25:45;9.05;;;5.57;;
16416;SDS011;8317;52.186;5.688;2023-06-22T08:28:13;7.43;;;4.47;;
16416;SDS011;8317;52.186;5.688;2023-06-22T08:30:40;5.95;;;3.90;;
16416;SDS011;8317;52.186;5.688;2023-06-22T08:33:06;8.35;;;4.93;;
16416;SDS011;8317;52.186;5.688;2023-06-22T08:35:35;7.43;;;4.63;;
16416;SDS011;8317;52.186;5.688;2023-06-22T08:38:02;10.55;;;5.03;;
16416;SDS011;8317;52.186;5.688;2023-06-22T08:40:29;6.85;;;4.15;;
16416;SDS011;8317;52.186;5.688;2023-06-22T08:42:55;6.80;;;4.90;;
16416;SDS011;8317;52.186;5.688;2023-06-22T08:45:22;6.93;;;4.00;;
16416;SDS011;8317;52.186;5.688;2023-06-22T08:47:49;11.07;;;4.32;;
16416;SDS011;8317;52.186;5.688;2023-06-22T08:50:16;5.38;;;4.18;;
16416;SDS011;8317;52.186;5.688;2023-06-22T08:52:44;8.13;;;5.20;;
16416;SDS011;8317;52.186;5.688;2023-06-22T08:55:11;8.38;;;4.05;;
16416;SDS011;8317;52.186;5.688;2023-06-22T08:57:39;6.60;;;4.95;;
16416;SDS011;8317;52.186;5.688;2023-06-22T09:00:07;10.18;;;3.58;;
16416;SDS011;8317;52.186;5.688;2023-06-22T09:02:45;8.35;;;4.38;;
16416;SDS011;8317;52.186;5.688;2023-06-22T09:05:12;5.05;;;3.97;;
16416;SDS011;8317;52.186;5.688;2023-06-22T09:07:39;6.10;;;3.90;;
16416;SDS011;8317;52.186;5.688;2023-06-22T09:10:08;7.45;;;5.05;;
16416;SDS011;8317;52.186;5.688;2023-06-22T09:12:35;5.97;;;4.15;;
16416;SDS011;8317;52.186;5.688;2023-06-22T09:15:03;7.65;;;4.45;;
16416;SDS011;8317;52.186;5.688;2023-06-22T09:17:32;4.80;;;3.75;;
16416;SDS011;8317;52.186;5.688;2023-06-22T09:20:00;6.20;;;3.80;;
16416;SDS011;8317;52.186;5.688;2023-06-22T09:22:30;5.97;;;4.25;;
16416;SDS011;8317;52.186;5.688;2023-06-22T09:24:57;6.38;;;4.30;;
16416;SDS011;8317;52.186;5.688;2023-06-22T09:27:26;5.25;;;3.80;;
16416;SDS011;8317;52.186;5.688;2023-06-22T09:29:53;6.15;;;4.30;;
16416;SDS011;8317;52.186;5.688;2023-06-22T09:32:20;8.98;;;4.78;;
16416;SDS011;8317;52.186;5.688;2023-06-22T09:34:47;6.35;;;4.35;;
16416;SDS011;8317;52.186;5.688;2023-06-22T09:37:14;6.65;;;4.35;;
16416;SDS011;8317;52.186;5.688;2023-06-22T09:39:40;6.60;;;4.43;;
16416;SDS011;8317;52.186;5.688;2023-06-22T09:42:07;5.22;;;3.67;;
16416;SDS011;8317;52.186;5.688;2023-06-22T09:44:36;4.65;;;3.28;;
16416;SDS011;8317;52.186;5.688;2023-06-22T09:47:03;5.82;;;3.67;;
16416;SDS011;8317;52.186;5.688;2023-06-22T09:49:30;4.22;;;3.47;;
16416;SDS011;8317;52.186;5.688;2023-06-22T09:51:57;4.93;;;3.33;;
16416;SDS011;8317;52.186;5.688;2023-06-22T09:54:24;8.38;;;3.63;;
16416;SDS011;8317;52.186;5.688;2023-06-22T09:56:51;5.10;;;3.47;;
16416;SDS011;8317;52.186;5.688;2023-06-22T09:59:17;6.43;;;4.25;;
16416;SDS011;8317;52.186;5.688;2023-06-22T10:01:46;7.85;;;4.35;;
16416;SDS011;8317;52.186;5.688;2023-06-22T10:04:13;8.25;;;3.85;;
16416;SDS011;8317;52.186;5.688;2023-06-22T10:06:39;6.63;;;4.15;;
16416;SDS011;8317;52.186;5.688;2023-06-22T10:09:06;7.55;;;3.42;;
16416;SDS011;8317;52.186;5.688;2023-06-22T10:11:33;4.90;;;3.22;;
16416;SDS011;8317;52.186;5.688;2023-06-22T10:14:00;3.15;;;2.75;;
16416;SDS011;8317;52.186;5.688;2023-06-22T10:16:30;4.20;;;3.47;;
16416;SDS011;8317;52.186;5.688;2023-06-22T10:18:59;5.68;;;3.40;;
16416;SDS011;8317;52.186;5.688;2023-06-22T10:21:26;6.28;;;3.15;;
16416;SDS011;8317;52.186;5.688;2023-06-22T10:23:53;5.13;;;2.33;;
16416;SDS011;8317;52.186;5.688;2023-06-22T10:26:21;6.35;;;4.20;;
16416;SDS011;8317;52.186;5.688;2023-06-22T10:28:47;6.85;;;4.00;;
16416;SDS011;8317;52.186;5.688;2023-06-22T10:31:14;5.78;;;3.58;;
16416;SDS011;8317;52.186;5.688;2023-06-22T10:33:41;5.07;;;3.42;;
16416;SDS011;8317;52.186;5.688;2023-06-22T10:36:10;5.80;;;3.30;;
16416;SDS011;8317;52.186;5.688;2023-06-22T10:38:37;7.78;;;2.65;;
16416;SDS011;8317;52.186;5.688;2023-06-22T10:41:04;3.67;;;2.72;;
16416;SDS011;8317;52.186;5.688;2023-06-22T10:43:31;8.70;;;3.20;;
16416;SDS011;8317;52.186;5.688;2023-06-22T10:45:58;4.93;;;3.25;;
16416;SDS011;8317;52.186;5.688;2023-06-22T10:48:25;4.78;;;3.50;;
16416;SDS011;8317;52.186;5.688;2023-06-22T10:50:52;5.40;;;3.47;;
16416;SDS011;8317;52.186;5.688;2023-06-22T10:53:21;23.30;;;6.22;;
16416;SDS011;8317;52.186;5.688;2023-06-22T10:55:47;6.03;;;4.20;;
16416;SDS011;8317;52.186;5.688;2023-06-22T10:58:14;7.50;;;4.63;;
16416;SDS011;8317;52.186;5.688;2023-06-22T11:00:41;6.80;;;4.10;;
16416;SDS011;8317;52.186;5.688;2023-06-22T11:03:08;6.72;;;4.57;;
16416;SDS011;8317;52.186;5.688;2023-06-22T11:05:35;4.70;;;4.07;;
16416;SDS011;8317;52.186;5.688;2023-06-22T11:08:02;5.45;;;4.13;;
16416;SDS011;8317;52.186;5.688;2023-06-22T11:10:30;6.63;;;4.60;;
16416;SDS011;8317;52.186;5.688;2023-06-22T11:12:57;5.85;;;4.32;;
16416;SDS011;8317;52.186;5.688;2023-06-22T11:15:24;5.70;;;3.63;;
16416;SDS011;8317;52.186;5.688;2023-06-22T11:17:51;6.00;;;4.20;;
16416;SDS011;8317;52.186;5.688;2023-06-22T11:20:18;6.75;;;4.25;;
16416;SDS011;8317;52.186;5.688;2023-06-22T11:22:45;5.13;;;4.30;;
16416;SDS011;8317;52.186;5.688;2023-06-22T11:25:12;6.32;;;4.45;;
16416;SDS011;8317;52.186;5.688;2023-06-22T11:27:40;7.28;;;5.18;;
16416;SDS011;8317;52.186;5.688;2023-06-22T11:30:07;8.63;;;5.28;;
16416;SDS011;8317;52.186;5.688;2023-06-22T11:32:35;6.20;;;4.30;;
16416;SDS011;8317;52.186;5.688;2023-06-22T11:35:01;10.02;;;5.20;;
16416;SDS011;8317;52.186;5.688;2023-06-22T11:37:29;9.45;;;5.68;;
16416;SDS011;8317;52.186;5.688;2023-06-22T11:39:55;5.35;;;3.80;;
16416;SDS011;8317;52.186;5.688;2023-06-22T11:42:23;6.18;;;4.30;;
16416;SDS011;8317;52.186;5.688;2023-06-22T11:44:51;11.05;;;4.07;;
16416;SDS011;8317;52.186;5.688;2023-06-22T11:47:18;6.85;;;3.45;;
16416;SDS011;8317;52.186;5.688;2023-06-22T11:49:45;8.90;;;4.40;;
16416;SDS011;8317;52.186;5.688;2023-06-22T11:52:12;6.90;;;4.13;;
16416;SDS011;8317;52.186;5.688;2023-06-22T11:54:39;6.38;;;4.40;;
16416;SDS011;8317;52.186;5.688;2023-06-22T11:57:06;7.13;;;4.40;;
16416;SDS011;8317;52.186;5.688;2023-06-22T11:59:33;7.78;;;4.13;;
16416;SDS011;8317;52.186;5.688;2023-06-22T12:02:01;6.07;;;4.00;;
16416;SDS011;8317;52.186;5.688;2023-06-22T12:04:30;6.30;;;3.70;;
16416;SDS011;8317;52.186;5.688;2023-06-22T12:06:58;7.32;;;4.35;;
16416;SDS011;8317;52.186;5.688;2023-06-22T12:09:25;7.60;;;4.40;;
16416;SDS011;8317;52.186;5.688;2023-06-22T12:11:52;6.85;;;4.82;;
16416;SDS011;8317;52.186;5.688;2023-06-22T12:14:18;7.35;;;4.85;;
16416;SDS011;8317;52.186;5.688;2023-06-22T12:16:45;7.03;;;5.15;;
16416;SDS011;8317;52.186;5.688;2023-06-22T12:19:14;8.45;;;4.72;;
16416;SDS011;8317;52.186;5.688;2023-06-22T12:21:40;6.50;;;5.00;;
16416;SDS011;8317;52.186;5.688;2023-06-22T12:24:10;7.35;;;5.05;;
16416;SDS011;8317;52.186;5.688;2023-06-22T12:26:37;9.40;;;5.47;;
16416;SDS011;8317;52.186;5.688;2023-06-22T12:29:04;9.00;;;5.10;;
16416;SDS011;8317;52.186;5.688;2023-06-22T12:31:31;7.65;;;5.00;;
16416;SDS011;8317;52.186;5.688;2023-06-22T12:33:58;8.07;;;4.93;;
16416;SDS011;8317;52.186;5.688;2023-06-22T12:36:26;7.20;;;4.15;;
16416;SDS011;8317;52.186;5.688;2023-06-22T12:38:53;7.03;;;4.90;;
16416;SDS011;8317;52.186;5.688;2023-06-22T12:41:20;7.00;;;5.10;;
16416;SDS011;8317;52.186;5.688;2023-06-22T12:43:47;6.70;;;4.28;;
16416;SDS011;8317;52.186;5.688;2023-06-22T12:46:14;9.00;;;4.60;;
16416;SDS011;8317;52.186;5.688;2023-06-22T12:48:40;10.93;;;5.85;;
16416;SDS011;8317;52.186;5.688;2023-06-22T12:51:07;6.20;;;4.88;;
16416;SDS011;8317;52.186;5.688;2023-06-22T12:53:36;6.53;;;4.00;;
16416;SDS011;8317;52.186;5.688;2023-06-22T12:56:03;7.50;;;5.05;;
16416;SDS011;8317;52.186;5.688;2023-06-22T12:58:30;8.05;;;4.45;;
16416;SDS011;8317;52.186;5.688;2023-06-22T13:00:57;8.02;;;5.47;;
16416;SDS011;8317;52.186;5.688;2023-06-22T13:03:23;7.03;;;4.63;;
16416;SDS011;8317;52.186;5.688;2023-06-22T13:05:52;7.93;;;5.57;;
16416;SDS011;8317;52.186;5.688;2023-06-22T13:08:19;8.38;;;5.70;;
16416;SDS011;8317;52.186;5.688;2023-06-22T13:10:48;9.20;;;5.80;;
16416;SDS011;8317;52.186;5.688;2023-06-22T13:13:15;10.40;;;6.30;;
16416;SDS011;8317;52.186;5.688;2023-06-22T13:15:41;6.88;;;5.00;;
16416;SDS011;8317;52.186;5.688;2023-06-22T13:18:08;10.48;;;5.47;;
16416;SDS011;8317;52.186;5.688;2023-06-22T13:20:35;8.15;;;5.80;;
16416;SDS011;8317;52.186;5.688;2023-06-22T13:23:02;7.65;;;5.57;;
16416;SDS011;8317;52.186;5.688;2023-06-22T13:25:29;8.75;;;6.53;;
16416;SDS011;8317;52.186;5.688;2023-06-22T13:27:57;8.93;;;5.35;;
16416;SDS011;8317;52.186;5.688;2023-06-22T13:30:24;10.00;;;6.70;;
16416;SDS011;8317;52.186;5.688;2023-06-22T13:32:51;10.05;;;6.75;;
16416;SDS011;8317;52.186;5.688;2023-06-22T13:35:18;10.52;;;6.97;;
16416;SDS011;8317;52.186;5.688;2023-06-22T13:37:45;8.32;;;6.85;;
16416;SDS011;8317;52.186;5.688;2023-06-22T13:40:15;13.02;;;7.30;;
16416;SDS011;8317;52.186;5.688;2023-06-22T13:42:42;8.25;;;5.72;;
16416;SDS011;8317;52.186;5.688;2023-06-22T13:45:10;11.10;;;7.25;;
16416;SDS011;8317;52.186;5.688;2023-06-22T13:47:37;8.75;;;6.25;;
16416;SDS011;8317;52.186;5.688;2023-06-22T13:50:04;10.40;;;7.32;;
16416;SDS011;8317;52.186;5.688;2023-06-22T13:52:32;8.70;;;6.78;;
16416;SDS011;8317;52.186;5.688;2023-06-22T13:54:59;9.95;;;6.30;;
16416;SDS011;8317;52.186;5.688;2023-06-22T13:57:26;7.13;;;6.32;;
16416;SDS011;8317;52.186;5.688;2023-06-22T13:59:53;7.28;;;5.47;;
16416;SDS011;8317;52.186;5.688;2023-06-22T14:02:21;9.32;;;7.32;;
16416;SDS011;8317;52.186;5.688;2023-06-22T14:04:48;14.25;;;7.35;;
16416;SDS011;8317;52.186;5.688;2023-06-22T14:07:15;9.48;;;5.57;;
16416;SDS011;8317;52.186;5.688;2023-06-22T14:09:42;7.70;;;6.10;;
16416;SDS011;8317;52.186;5.688;2023-06-22T14:12:09;8.77;;;6.20;;
16416;SDS011;8317;52.186;5.688;2023-06-22T14:14:37;13.00;;;7.40;;
16416;SDS011;8317;52.186;5.688;2023-06-22T14:17:04;9.93;;;7.47;;
16416;SDS011;8317;52.186;5.688;2023-06-22T14:19:32;9.65;;;7.05;;
16416;SDS011;8317;52.186;5.688;2023-06-22T14:21:59;9.20;;;7.05;;
16416;SDS011;8317;52.186;5.688;2023-06-22T14:24:26;8.23;;;6.63;;
16416;SDS011;8317;52.186;5.688;2023-06-22T14:26:53;8.43;;;6.78;;
16416;SDS011;8317;52.186;5.688;2023-06-22T14:29:20;7.63;;;6.35;;
16416;SDS011;8317;52.186;5.688;2023-06-22T14:31:47;9.93;;;7.03;;
16416;SDS011;8317;52.186;5.688;2023-06-22T14:34:14;8.02;;;6.15;;
16416;SDS011;8317;52.186;5.688;2023-06-22T14:36:43;9.30;;;7.53;;
16416;SDS011;8317;52.186;5.688;2023-06-22T14:39:10;11.00;;;7.53;;
16416;SDS011;8317;52.186;5.688;2023-06-22T14:41:37;11.48;;;7.10;;
16416;SDS011;8317;52.186;5.688;2023-06-22T14:44:03;9.55;;;6.15;;
16416;SDS011;8317;52.186;5.688;2023-06-22T14:46:30;8.40;;;5.93;;
16416;SDS011;8317;52.186;5.688;2023-06-22T14:48:57;8.85;;;6.63;;
16416;SDS011;8317;52.186;5.688;2023-06-22T14:51:24;10.88;;;8.15;;
16416;SDS011;8317;52.186;5.688;2023-06-22T14:53:53;11.23;;;8.68;;
16416;SDS011;8317;52.186;5.688;2023-06-22T14:56:20;11.23;;;7.35;;
16416;SDS011;8317;52.186;5.688;2023-06-22T14:58:46;12.43;;;8.10;;
16416;SDS011;8317;52.186;5.688;2023-06-22T15:01:13;10.77;;;8.07;;